sensor_id;sensor_type;location;lat;lon;timestamp;P1;durP1;ratioP1;P2;durP2;ratioP2
4839;SDS011;2434;48.486;7.964;2023-07-28T00:00:10;7.93;;;2.03;;
4839;SDS011;2434;48.486;7.964;2023-07-28T00:02:40;2.50;;;2.00;;
4839;SDS011;2434;48.486;7.964;2023-07-28T00:05:08;2.90;;;1.70;;
4839;SDS011;2434;48.486;7.964;2023-07-28T00:07:36;7.80;;;2.47;;
4839;SDS011;2434;48.486;7.964;2023-07-28T00:10:05;3.40;;;2.50;;
4839;SDS011;2434;48.486;7.964;2023-07-28T00:12:35;6.13;;;2.17;;
4839;SDS011;2434;48.486;7.964;2023-07-28T00:15:03;5.80;;;2.40;;
4839;SDS011;2434;48.486;7.964;2023-07-28T00:17:32;4.20;;;2.60;;
4839;SDS011;2434;48.486;7.964;2023-07-28T00:20:00;6.03;;;2.50;;
4839;SDS011;2434;48.486;7.964;2023-07-28T00:22:28;4.23;;;2.30;;
4839;SDS011;2434;48.486;7.964;2023-07-28T00:24:57;2.87;;;2.00;;
4839;SDS011;2434;48.486;7.964;2023-07-28T00:27:25;3.00;;;2.00;;
4839;SDS011;2434;48.486;7.964;2023-07-28T00:29:54;6.23;;;2.13;;
4839;SDS011;2434;48.486;7.964;2023-07-28T00:32:22;4.50;;;1.90;;
4839;SDS011;2434;48.486;7.964;2023-07-28T00:34:51;3.63;;;2.60;;
4839;SDS011;2434;48.486;7.964;2023-07-28T00:37:19;6.20;;;2.53;;
4839;SDS011;2434;48.486;7.964;2023-07-28T00:39:47;4.40;;;2.50;;
4839;SDS011;2434;48.486;7.964;2023-07-28T00:42:16;3.93;;;2.30;;
4839;SDS011;2434;48.486;7.964;2023-07-28T00:44:44;6.80;;;2.80;;
4839;SDS011;2434;48.486;7.964;2023-07-28T00:47:13;3.50;;;2.07;;
4839;SDS011;2434;48.486;7.964;2023-07-28T00:49:41;2.37;;;1.93;;
4839;SDS011;2434;48.486;7.964;2023-07-28T00:52:10;4.10;;;2.13;;
4839;SDS011;2434;48.486;7.964;2023-07-28T00:54:38;3.20;;;2.30;;
4839;SDS011;2434;48.486;7.964;2023-07-28T00:57:07;4.50;;;2.93;;
4839;SDS011;2434;48.486;7.964;2023-07-28T00:59:36;5.67;;;2.27;;
4839;SDS011;2434;48.486;7.964;2023-07-28T01:02:04;3.40;;;2.20;;
4839;SDS011;2434;48.486;7.964;2023-07-28T01:04:34;4.20;;;2.40;;
4839;SDS011;2434;48.486;7.964;2023-07-28T01:07:03;3.20;;;2.33;;
4839;SDS011;2434;48.486;7.964;2023-07-28T01:09:42;3.67;;;1.90;;
4839;SDS011;2434;48.486;7.964;2023-07-28T01:12:14;5.20;;;2.23;;
4839;SDS011;2434;48.486;7.964;2023-07-28T01:14:43;4.17;;;2.40;;
4839;SDS011;2434;48.486;7.964;2023-07-28T01:17:11;4.10;;;2.23;;
4839;SDS011;2434;48.486;7.964;2023-07-28T01:19:41;3.20;;;2.27;;
4839;SDS011;2434;48.486;7.964;2023-07-28T01:25:08;3.20;;;2.40;;
4839;SDS011;2434;48.486;7.964;2023-07-28T01:27:47;6.40;;;2.80;;
4839;SDS011;2434;48.486;7.964;2023-07-28T01:30:16;3.10;;;1.57;;
4839;SDS011;2434;48.486;7.964;2023-07-28T01:32:46;3.60;;;2.40;;
4839;SDS011;2434;48.486;7.964;2023-07-28T01:35:15;3.50;;;2.47;;
4839;SDS011;2434;48.486;7.964;2023-07-28T01:37:43;3.30;;;2.20;;
4839;SDS011;2434;48.486;7.964;2023-07-28T01:40:11;3.63;;;2.40;;
4839;SDS011;2434;48.486;7.964;2023-07-28T01:42:39;2.70;;;1.90;;
4839;SDS011;2434;48.486;7.964;2023-07-28T01:45:09;4.30;;;2.23;;
4839;SDS011;2434;48.486;7.964;2023-07-28T01:47:38;4.83;;;2.20;;
4839;SDS011;2434;48.486;7.964;2023-07-28T01:50:06;5.87;;;2.93;;
4839;SDS011;2434;48.486;7.964;2023-07-28T01:52:35;3.40;;;2.37;;
4839;SDS011;2434;48.486;7.964;2023-07-28T01:55:03;3.40;;;2.40;;
4839;SDS011;2434;48.486;7.964;2023-07-28T01:57:33;3.83;;;2.70;;
4839;SDS011;2434;48.486;7.964;2023-07-28T02:00:01;3.27;;;2.10;;
4839;SDS011;2434;48.486;7.964;2023-07-28T02:02:40;2.80;;;2.20;;
4839;SDS011;2434;48.486;7.964;2023-07-28T02:05:08;3.50;;;2.13;;
4839;SDS011;2434;48.486;7.964;2023-07-28T02:07:36;3.90;;;2.33;;
4839;SDS011;2434;48.486;7.964;2023-07-28T02:10:05;6.80;;;2.57;;
4839;SDS011;2434;48.486;7.964;2023-07-28T02:12:34;5.53;;;2.20;;
4839;SDS011;2434;48.486;7.964;2023-07-28T02:15:02;6.17;;;2.23;;
4839;SDS011;2434;48.486;7.964;2023-07-28T02:17:30;5.43;;;2.40;;
4839;SDS011;2434;48.486;7.964;2023-07-28T02:20:00;3.90;;;2.50;;
4839;SDS011;2434;48.486;7.964;2023-07-28T02:22:30;4.63;;;2.30;;
4839;SDS011;2434;48.486;7.964;2023-07-28T02:24:58;5.10;;;2.50;;
4839;SDS011;2434;48.486;7.964;2023-07-28T02:27:28;5.93;;;2.80;;
4839;SDS011;2434;48.486;7.964;2023-07-28T02:29:56;3.60;;;2.40;;
4839;SDS011;2434;48.486;7.964;2023-07-28T02:32:25;2.90;;;2.13;;
4839;SDS011;2434;48.486;7.964;2023-07-28T02:34:53;5.10;;;2.40;;
4839;SDS011;2434;48.486;7.964;2023-07-28T02:37:23;3.53;;;2.20;;
4839;SDS011;2434;48.486;7.964;2023-07-28T02:39:52;6.43;;;2.30;;
4839;SDS011;2434;48.486;7.964;2023-07-28T02:42:20;3.90;;;2.53;;
4839;SDS011;2434;48.486;7.964;2023-07-28T02:44:50;6.90;;;2.37;;
4839;SDS011;2434;48.486;7.964;2023-07-28T02:47:18;3.90;;;2.13;;
4839;SDS011;2434;48.486;7.964;2023-07-28T02:49:46;3.27;;;2.10;;
4839;SDS011;2434;48.486;7.964;2023-07-28T02:52:14;3.97;;;1.77;;
4839;SDS011;2434;48.486;7.964;2023-07-28T02:54:44;6.17;;;2.73;;
4839;SDS011;2434;48.486;7.964;2023-07-28T02:57:12;6.30;;;2.23;;
4839;SDS011;2434;48.486;7.964;2023-07-28T02:59:46;3.17;;;1.83;;
4839;SDS011;2434;48.486;7.964;2023-07-28T03:02:15;6.70;;;2.10;;
4839;SDS011;2434;48.486;7.964;2023-07-28T03:04:43;3.47;;;2.43;;
4839;SDS011;2434;48.486;7.964;2023-07-28T03:07:14;3.03;;;1.90;;
4839;SDS011;2434;48.486;7.964;2023-07-28T03:09:48;4.20;;;3.00;;
4839;SDS011;2434;48.486;7.964;2023-07-28T03:12:16;6.93;;;3.00;;
4839;SDS011;2434;48.486;7.964;2023-07-28T03:14:44;5.10;;;2.87;;
4839;SDS011;2434;48.486;7.964;2023-07-28T03:17:13;3.80;;;3.00;;
4839;SDS011;2434;48.486;7.964;2023-07-28T03:19:41;6.07;;;3.17;;
4839;SDS011;2434;48.486;7.964;2023-07-28T03:22:09;6.60;;;2.83;;
4839;SDS011;2434;48.486;7.964;2023-07-28T03:24:37;4.77;;;2.87;;
4839;SDS011;2434;48.486;7.964;2023-07-28T03:27:07;4.60;;;2.50;;
4839;SDS011;2434;48.486;7.964;2023-07-28T03:29:35;5.87;;;2.73;;
4839;SDS011;2434;48.486;7.964;2023-07-28T03:32:04;3.00;;;2.23;;
4839;SDS011;2434;48.486;7.964;2023-07-28T03:34:33;4.30;;;2.87;;
4839;SDS011;2434;48.486;7.964;2023-07-28T03:37:05;5.83;;;2.70;;
4839;SDS011;2434;48.486;7.964;2023-07-28T03:39:36;3.40;;;2.40;;
4839;SDS011;2434;48.486;7.964;2023-07-28T03:42:04;4.23;;;2.63;;
4839;SDS011;2434;48.486;7.964;2023-07-28T03:44:35;4.27;;;2.70;;
4839;SDS011;2434;48.486;7.964;2023-07-28T03:47:04;8.90;;;2.83;;
4839;SDS011;2434;48.486;7.964;2023-07-28T03:49:33;3.00;;;2.40;;
4839;SDS011;2434;48.486;7.964;2023-07-28T03:52:01;5.10;;;2.67;;
4839;SDS011;2434;48.486;7.964;2023-07-28T03:54:30;4.93;;;2.90;;
4839;SDS011;2434;48.486;7.964;2023-07-28T03:56:58;3.80;;;2.83;;
4839;SDS011;2434;48.486;7.964;2023-07-28T03:59:26;4.43;;;2.70;;
4839;SDS011;2434;48.486;7.964;2023-07-28T04:01:56;6.30;;;3.33;;
4839;SDS011;2434;48.486;7.964;2023-07-28T04:04:25;4.03;;;2.67;;
4839;SDS011;2434;48.486;7.964;2023-07-28T04:06:53;9.83;;;2.80;;
4839;SDS011;2434;48.486;7.964;2023-07-28T04:09:21;11.07;;;3.30;;
4839;SDS011;2434;48.486;7.964;2023-07-28T04:11:49;5.60;;;2.80;;
4839;SDS011;2434;48.486;7.964;2023-07-28T04:14:17;2.93;;;1.83;;
4839;SDS011;2434;48.486;7.964;2023-07-28T04:16:46;3.33;;;2.57;;
4839;SDS011;2434;48.486;7.964;2023-07-28T04:19:15;3.67;;;2.23;;
4839;SDS011;2434;48.486;7.964;2023-07-28T04:21:43;4.00;;;2.70;;
4839;SDS011;2434;48.486;7.964;2023-07-28T04:24:12;3.77;;;2.20;;
4839;SDS011;2434;48.486;7.964;2023-07-28T04:26:45;4.70;;;2.83;;
4839;SDS011;2434;48.486;7.964;2023-07-28T04:29:17;5.07;;;3.10;;
4839;SDS011;2434;48.486;7.964;2023-07-28T04:31:45;3.83;;;2.47;;
4839;SDS011;2434;48.486;7.964;2023-07-28T04:34:21;4.90;;;2.50;;
4839;SDS011;2434;48.486;7.964;2023-07-28T04:37:15;5.00;;;3.00;;
4839;SDS011;2434;48.486;7.964;2023-07-28T04:39:53;4.93;;;2.67;;
4839;SDS011;2434;48.486;7.964;2023-07-28T04:42:21;6.33;;;2.60;;
4839;SDS011;2434;48.486;7.964;2023-07-28T04:44:50;3.50;;;2.60;;
4839;SDS011;2434;48.486;7.964;2023-07-28T04:47:18;5.90;;;4.17;;
4839;SDS011;2434;48.486;7.964;2023-07-28T04:49:47;4.83;;;2.90;;
4839;SDS011;2434;48.486;7.964;2023-07-28T04:52:34;5.63;;;3.03;;
4839;SDS011;2434;48.486;7.964;2023-07-28T04:55:19;5.70;;;2.90;;
4839;SDS011;2434;48.486;7.964;2023-07-28T04:57:47;4.37;;;2.83;;
4839;SDS011;2434;48.486;7.964;2023-07-28T05:00:18;3.77;;;2.77;;
4839;SDS011;2434;48.486;7.964;2023-07-28T05:02:46;4.30;;;2.30;;
4839;SDS011;2434;48.486;7.964;2023-07-28T05:05:17;4.20;;;2.60;;
4839;SDS011;2434;48.486;7.964;2023-07-28T05:07:45;4.27;;;3.07;;
4839;SDS011;2434;48.486;7.964;2023-07-28T05:10:14;4.53;;;2.77;;
4839;SDS011;2434;48.486;7.964;2023-07-28T05:12:43;3.83;;;2.50;;
4839;SDS011;2434;48.486;7.964;2023-07-28T05:15:13;4.30;;;2.77;;
4839;SDS011;2434;48.486;7.964;2023-07-28T05:17:43;3.60;;;2.40;;
4839;SDS011;2434;48.486;7.964;2023-07-28T05:20:32;5.70;;;3.60;;
4839;SDS011;2434;48.486;7.964;2023-07-28T05:23:12;7.20;;;4.40;;
4839;SDS011;2434;48.486;7.964;2023-07-28T05:25:40;7.63;;;3.70;;
4839;SDS011;2434;48.486;7.964;2023-07-28T05:28:09;7.80;;;3.23;;
4839;SDS011;2434;48.486;7.964;2023-07-28T05:30:39;5.60;;;3.30;;
4839;SDS011;2434;48.486;7.964;2023-07-28T05:33:07;3.40;;;2.40;;
4839;SDS011;2434;48.486;7.964;2023-07-28T05:35:56;10.63;;;4.07;;
4839;SDS011;2434;48.486;7.964;2023-07-28T05:38:30;6.83;;;3.53;;
4839;SDS011;2434;48.486;7.964;2023-07-28T05:40:59;10.10;;;4.30;;
4839;SDS011;2434;48.486;7.964;2023-07-28T05:43:29;5.70;;;3.77;;
4839;SDS011;2434;48.486;7.964;2023-07-28T05:45:59;4.87;;;3.47;;
4839;SDS011;2434;48.486;7.964;2023-07-28T05:48:32;4.90;;;3.80;;
4839;SDS011;2434;48.486;7.964;2023-07-28T05:51:02;4.80;;;3.30;;
4839;SDS011;2434;48.486;7.964;2023-07-28T05:53:31;4.43;;;3.00;;
4839;SDS011;2434;48.486;7.964;2023-07-28T05:56:03;3.67;;;2.90;;
4839;SDS011;2434;48.486;7.964;2023-07-28T05:58:32;4.37;;;3.30;;
4839;SDS011;2434;48.486;7.964;2023-07-28T06:01:01;6.27;;;3.33;;
4839;SDS011;2434;48.486;7.964;2023-07-28T06:04:01;4.63;;;3.30;;
4839;SDS011;2434;48.486;7.964;2023-07-28T06:06:34;4.77;;;3.57;;
4839;SDS011;2434;48.486;7.964;2023-07-28T06:09:02;6.13;;;2.80;;
4839;SDS011;2434;48.486;7.964;2023-07-28T06:11:33;6.30;;;3.77;;
4839;SDS011;2434;48.486;7.964;2023-07-28T06:14:03;5.10;;;3.10;;
4839;SDS011;2434;48.486;7.964;2023-07-28T06:16:33;5.03;;;3.00;;
4839;SDS011;2434;48.486;7.964;2023-07-28T06:19:02;6.30;;;3.23;;
4839;SDS011;2434;48.486;7.964;2023-07-28T06:21:36;7.40;;;3.63;;
4839;SDS011;2434;48.486;7.964;2023-07-28T06:24:04;8.97;;;4.10;;
4839;SDS011;2434;48.486;7.964;2023-07-28T06:26:33;5.70;;;3.60;;
4839;SDS011;2434;48.486;7.964;2023-07-28T06:29:01;15.10;;;3.40;;
4839;SDS011;2434;48.486;7.964;2023-07-28T06:31:29;6.97;;;4.30;;
4839;SDS011;2434;48.486;7.964;2023-07-28T06:33:59;5.33;;;3.50;;
4839;SDS011;2434;48.486;7.964;2023-07-28T06:36:28;6.50;;;3.70;;
4839;SDS011;2434;48.486;7.964;2023-07-28T06:38:59;5.03;;;3.97;;
4839;SDS011;2434;48.486;7.964;2023-07-28T06:41:28;4.40;;;3.23;;
4839;SDS011;2434;48.486;7.964;2023-07-28T06:43:59;6.10;;;4.00;;
4839;SDS011;2434;48.486;7.964;2023-07-28T06:46:28;6.70;;;3.63;;
4839;SDS011;2434;48.486;7.964;2023-07-28T06:48:57;5.30;;;3.80;;
4839;SDS011;2434;48.486;7.964;2023-07-28T06:51:26;4.10;;;3.40;;
4839;SDS011;2434;48.486;7.964;2023-07-28T06:53:54;8.27;;;3.80;;
4839;SDS011;2434;48.486;7.964;2023-07-28T06:56:24;6.50;;;3.90;;
4839;SDS011;2434;48.486;7.964;2023-07-28T06:58:52;5.33;;;3.30;;
4839;SDS011;2434;48.486;7.964;2023-07-28T07:01:38;5.20;;;3.70;;
4839;SDS011;2434;48.486;7.964;2023-07-28T07:04:06;5.50;;;3.90;;
4839;SDS011;2434;48.486;7.964;2023-07-28T07:06:34;6.33;;;3.70;;
4839;SDS011;2434;48.486;7.964;2023-07-28T07:09:02;5.17;;;3.23;;
4839;SDS011;2434;48.486;7.964;2023-07-28T07:11:33;4.53;;;3.23;;
4839;SDS011;2434;48.486;7.964;2023-07-28T07:14:03;9.30;;;3.70;;
4839;SDS011;2434;48.486;7.964;2023-07-28T07:16:32;4.70;;;2.77;;
4839;SDS011;2434;48.486;7.964;2023-07-28T07:19:01;4.93;;;3.30;;
4839;SDS011;2434;48.486;7.964;2023-07-28T07:21:30;16.20;;;3.40;;
4839;SDS011;2434;48.486;7.964;2023-07-28T07:23:59;6.10;;;3.50;;
4839;SDS011;2434;48.486;7.964;2023-07-28T07:26:28;7.20;;;3.90;;
4839;SDS011;2434;48.486;7.964;2023-07-28T07:28:59;5.20;;;3.20;;
4839;SDS011;2434;48.486;7.964;2023-07-28T07:31:27;8.30;;;3.63;;
4839;SDS011;2434;48.486;7.964;2023-07-28T07:33:55;6.67;;;3.67;;
4839;SDS011;2434;48.486;7.964;2023-07-28T07:36:24;7.53;;;3.10;;
4839;SDS011;2434;48.486;7.964;2023-07-28T07:38:52;4.90;;;3.17;;
4839;SDS011;2434;48.486;7.964;2023-07-28T07:41:21;5.57;;;3.30;;
4839;SDS011;2434;48.486;7.964;2023-07-28T07:43:51;6.27;;;3.50;;
4839;SDS011;2434;48.486;7.964;2023-07-28T07:46:22;5.07;;;3.73;;
4839;SDS011;2434;48.486;7.964;2023-07-28T07:48:51;4.20;;;3.20;;
4839;SDS011;2434;48.486;7.964;2023-07-28T07:51:19;5.07;;;3.10;;
4839;SDS011;2434;48.486;7.964;2023-07-28T07:53:47;8.23;;;3.33;;
4839;SDS011;2434;48.486;7.964;2023-07-28T07:56:15;5.70;;;2.87;;
4839;SDS011;2434;48.486;7.964;2023-07-28T07:58:44;8.50;;;2.83;;
4839;SDS011;2434;48.486;7.964;2023-07-28T08:01:12;6.13;;;3.70;;
4839;SDS011;2434;48.486;7.964;2023-07-28T08:03:42;8.10;;;3.77;;
4839;SDS011;2434;48.486;7.964;2023-07-28T08:06:10;8.23;;;3.50;;
4839;SDS011;2434;48.486;7.964;2023-07-28T08:08:38;5.60;;;3.50;;
4839;SDS011;2434;48.486;7.964;2023-07-28T08:11:09;6.93;;;3.70;;
4839;SDS011;2434;48.486;7.964;2023-07-28T08:13:38;8.27;;;4.40;;
4839;SDS011;2434;48.486;7.964;2023-07-28T08:16:06;7.33;;;3.63;;
4839;SDS011;2434;48.486;7.964;2023-07-28T08:18:35;8.27;;;3.37;;
4839;SDS011;2434;48.486;7.964;2023-07-28T08:21:04;8.23;;;4.10;;
4839;SDS011;2434;48.486;7.964;2023-07-28T08:23:33;7.43;;;3.50;;
4839;SDS011;2434;48.486;7.964;2023-07-28T08:26:01;5.23;;;3.67;;
4839;SDS011;2434;48.486;7.964;2023-07-28T08:28:30;7.47;;;3.43;;
4839;SDS011;2434;48.486;7.964;2023-07-28T08:30:59;6.43;;;4.27;;
4839;SDS011;2434;48.486;7.964;2023-07-28T08:33:27;5.70;;;4.07;;
4839;SDS011;2434;48.486;7.964;2023-07-28T08:35:56;6.20;;;4.13;;
4839;SDS011;2434;48.486;7.964;2023-07-28T08:38:28;5.70;;;3.60;;
4839;SDS011;2434;48.486;7.964;2023-07-28T08:40:56;7.77;;;4.10;;
4839;SDS011;2434;48.486;7.964;2023-07-28T08:43:26;7.20;;;3.20;;
4839;SDS011;2434;48.486;7.964;2023-07-28T08:45:54;13.47;;;4.57;;
4839;SDS011;2434;48.486;7.964;2023-07-28T08:48:23;12.33;;;4.03;;
4839;SDS011;2434;48.486;7.964;2023-07-28T08:50:52;7.13;;;3.50;;
4839;SDS011;2434;48.486;7.964;2023-07-28T08:53:21;6.70;;;3.23;;
4839;SDS011;2434;48.486;7.964;2023-07-28T08:55:50;4.70;;;2.80;;
4839;SDS011;2434;48.486;7.964;2023-07-28T08:58:19;5.90;;;3.30;;
4839;SDS011;2434;48.486;7.964;2023-07-28T09:00:51;7.90;;;3.13;;
4839;SDS011;2434;48.486;7.964;2023-07-28T09:03:20;4.83;;;3.10;;
4839;SDS011;2434;48.486;7.964;2023-07-28T09:05:49;6.10;;;3.30;;
4839;SDS011;2434;48.486;7.964;2023-07-28T09:08:17;6.03;;;3.40;;
4839;SDS011;2434;48.486;7.964;2023-07-28T09:10:46;4.70;;;2.90;;
4839;SDS011;2434;48.486;7.964;2023-07-28T09:13:17;5.40;;;3.30;;
4839;SDS011;2434;48.486;7.964;2023-07-28T09:15:46;6.57;;;3.17;;
4839;SDS011;2434;48.486;7.964;2023-07-28T09:18:17;6.70;;;3.40;;
4839;SDS011;2434;48.486;7.964;2023-07-28T09:20:45;9.20;;;3.17;;
4839;SDS011;2434;48.486;7.964;2023-07-28T09:23:14;7.20;;;3.20;;
4839;SDS011;2434;48.486;7.964;2023-07-28T09:25:42;6.17;;;3.00;;
4839;SDS011;2434;48.486;7.964;2023-07-28T09:28:11;5.40;;;2.80;;
4839;SDS011;2434;48.486;7.964;2023-07-28T09:30:45;4.80;;;3.33;;
4839;SDS011;2434;48.486;7.964;2023-07-28T09:33:28;5.13;;;3.53;;
4839;SDS011;2434;48.486;7.964;2023-07-28T09:35:57;4.50;;;2.80;;
4839;SDS011;2434;48.486;7.964;2023-07-28T09:38:35;5.07;;;3.00;;
4839;SDS011;2434;48.486;7.964;2023-07-28T09:41:04;5.77;;;2.63;;
4839;SDS011;2434;48.486;7.964;2023-07-28T09:43:34;8.70;;;3.20;;
4839;SDS011;2434;48.486;7.964;2023-07-28T09:46:04;7.30;;;3.30;;
4839;SDS011;2434;48.486;7.964;2023-07-28T09:48:34;4.80;;;2.53;;
4839;SDS011;2434;48.486;7.964;2023-07-28T09:51:05;5.00;;;3.47;;
4839;SDS011;2434;48.486;7.964;2023-07-28T09:53:38;5.00;;;3.33;;
4839;SDS011;2434;48.486;7.964;2023-07-28T09:56:24;6.00;;;2.93;;
4839;SDS011;2434;48.486;7.964;2023-07-28T09:58:56;4.60;;;2.90;;
4839;SDS011;2434;48.486;7.964;2023-07-28T10:01:26;5.67;;;3.50;;
4839;SDS011;2434;48.486;7.964;2023-07-28T10:03:56;4.80;;;3.50;;
4839;SDS011;2434;48.486;7.964;2023-07-28T10:06:26;5.40;;;3.23;;
4839;SDS011;2434;48.486;7.964;2023-07-28T10:08:56;4.80;;;3.07;;
4839;SDS011;2434;48.486;7.964;2023-07-28T10:11:24;4.70;;;3.30;;
4839;SDS011;2434;48.486;7.964;2023-07-28T10:13:54;5.60;;;3.87;;
4839;SDS011;2434;48.486;7.964;2023-07-28T10:16:30;4.43;;;3.20;;
4839;SDS011;2434;48.486;7.964;2023-07-28T10:19:05;4.37;;;3.10;;
4839;SDS011;2434;48.486;7.964;2023-07-28T10:21:37;4.50;;;3.07;;
4839;SDS011;2434;48.486;7.964;2023-07-28T10:24:08;5.40;;;3.67;;
4839;SDS011;2434;48.486;7.964;2023-07-28T10:26:37;4.30;;;3.40;;
4839;SDS011;2434;48.486;7.964;2023-07-28T10:29:08;6.10;;;3.27;;
4839;SDS011;2434;48.486;7.964;2023-07-28T10:31:39;5.03;;;3.70;;
4839;SDS011;2434;48.486;7.964;2023-07-28T10:34:17;5.67;;;3.80;;
4839;SDS011;2434;48.486;7.964;2023-07-28T10:36:46;6.20;;;3.50;;
4839;SDS011;2434;48.486;7.964;2023-07-28T10:39:14;5.50;;;3.47;;
4839;SDS011;2434;48.486;7.964;2023-07-28T10:42:00;4.90;;;3.30;;
4839;SDS011;2434;48.486;7.964;2023-07-28T10:44:31;6.23;;;3.50;;
4839;SDS011;2434;48.486;7.964;2023-07-28T10:47:04;4.57;;;3.33;;
4839;SDS011;2434;48.486;7.964;2023-07-28T10:49:35;4.90;;;3.40;;
4839;SDS011;2434;48.486;7.964;2023-07-28T10:52:03;5.47;;;2.83;;
4839;SDS011;2434;48.486;7.964;2023-07-28T10:54:32;5.97;;;3.60;;
4839;SDS011;2434;48.486;7.964;2023-07-28T10:57:01;6.00;;;3.40;;
4839;SDS011;2434;48.486;7.964;2023-07-28T10:59:32;7.33;;;3.23;;
4839;SDS011;2434;48.486;7.964;2023-07-28T11:02:00;4.97;;;3.03;;
4839;SDS011;2434;48.486;7.964;2023-07-28T11:04:30;3.37;;;2.67;;
4839;SDS011;2434;48.486;7.964;2023-07-28T11:06:59;5.70;;;3.07;;
4839;SDS011;2434;48.486;7.964;2023-07-28T11:09:27;8.57;;;3.23;;
4839;SDS011;2434;48.486;7.964;2023-07-28T11:11:55;7.67;;;3.17;;
4839;SDS011;2434;48.486;7.964;2023-07-28T11:14:24;6.77;;;3.50;;
4839;SDS011;2434;48.486;7.964;2023-07-28T11:16:52;5.30;;;3.47;;
4839;SDS011;2434;48.486;7.964;2023-07-28T11:19:23;5.90;;;3.43;;
4839;SDS011;2434;48.486;7.964;2023-07-28T11:21:53;5.40;;;3.40;;
4839;SDS011;2434;48.486;7.964;2023-07-28T11:24:24;4.27;;;3.30;;
4839;SDS011;2434;48.486;7.964;2023-07-28T11:26:53;4.93;;;2.67;;
4839;SDS011;2434;48.486;7.964;2023-07-28T11:29:24;8.43;;;3.70;;
4839;SDS011;2434;48.486;7.964;2023-07-28T11:31:54;4.50;;;3.40;;
4839;SDS011;2434;48.486;7.964;2023-07-28T11:34:24;5.70;;;2.93;;
4839;SDS011;2434;48.486;7.964;2023-07-28T11:36:52;4.90;;;2.77;;
4839;SDS011;2434;48.486;7.964;2023-07-28T11:39:22;6.33;;;3.77;;
4839;SDS011;2434;48.486;7.964;2023-07-28T11:41:52;4.20;;;3.23;;
4839;SDS011;2434;48.486;7.964;2023-07-28T11:44:21;5.33;;;3.70;;
4839;SDS011;2434;48.486;7.964;2023-07-28T11:46:50;6.10;;;4.10;;
4839;SDS011;2434;48.486;7.964;2023-07-28T11:49:22;4.80;;;3.17;;
4839;SDS011;2434;48.486;7.964;2023-07-28T11:51:53;10.00;;;4.10;;
4839;SDS011;2434;48.486;7.964;2023-07-28T11:54:26;9.20;;;4.30;;
4839;SDS011;2434;48.486;7.964;2023-07-28T11:56:54;5.47;;;3.70;;
4839;SDS011;2434;48.486;7.964;2023-07-28T11:59:24;6.27;;;4.50;;
4839;SDS011;2434;48.486;7.964;2023-07-28T12:01:53;6.20;;;3.50;;
4839;SDS011;2434;48.486;7.964;2023-07-28T12:04:25;5.70;;;4.07;;
4839;SDS011;2434;48.486;7.964;2023-07-28T12:07:06;4.43;;;3.30;;
4839;SDS011;2434;48.486;7.964;2023-07-28T12:09:48;6.70;;;3.83;;
4839;SDS011;2434;48.486;7.964;2023-07-28T12:12:21;8.27;;;3.37;;
4839;SDS011;2434;48.486;7.964;2023-07-28T12:14:51;6.63;;;3.90;;
4839;SDS011;2434;48.486;7.964;2023-07-28T12:17:22;5.00;;;3.47;;
4839;SDS011;2434;48.486;7.964;2023-07-28T12:20:13;6.07;;;3.90;;
4839;SDS011;2434;48.486;7.964;2023-07-28T12:22:44;5.10;;;3.40;;
4839;SDS011;2434;48.486;7.964;2023-07-28T12:25:13;4.97;;;3.87;;
4839;SDS011;2434;48.486;7.964;2023-07-28T12:27:42;5.37;;;3.70;;
4839;SDS011;2434;48.486;7.964;2023-07-28T12:30:10;5.90;;;4.00;;
4839;SDS011;2434;48.486;7.964;2023-07-28T12:32:42;5.40;;;3.60;;
4839;SDS011;2434;48.486;7.964;2023-07-28T12:35:14;7.40;;;3.90;;
4839;SDS011;2434;48.486;7.964;2023-07-28T12:37:44;5.30;;;3.47;;
4839;SDS011;2434;48.486;7.964;2023-07-28T12:40:15;6.63;;;3.67;;
4839;SDS011;2434;48.486;7.964;2023-07-28T12:42:46;6.23;;;3.83;;
4839;SDS011;2434;48.486;7.964;2023-07-28T12:45:18;4.80;;;3.07;;
4839;SDS011;2434;48.486;7.964;2023-07-28T12:47:48;7.13;;;4.60;;
4839;SDS011;2434;48.486;7.964;2023-07-28T12:50:24;6.50;;;3.67;;
4839;SDS011;2434;48.486;7.964;2023-07-28T12:52:54;6.57;;;4.70;;
4839;SDS011;2434;48.486;7.964;2023-07-28T12:55:39;8.10;;;4.20;;
4839;SDS011;2434;48.486;7.964;2023-07-28T12:58:26;7.57;;;3.77;;
4839;SDS011;2434;48.486;7.964;2023-07-28T13:00:58;4.97;;;4.00;;
4839;SDS011;2434;48.486;7.964;2023-07-28T13:03:28;6.27;;;4.00;;
4839;SDS011;2434;48.486;7.964;2023-07-28T13:05:57;5.60;;;3.90;;
4839;SDS011;2434;48.486;7.964;2023-07-28T13:08:26;5.97;;;3.97;;
4839;SDS011;2434;48.486;7.964;2023-07-28T13:10:59;5.40;;;4.13;;
4839;SDS011;2434;48.486;7.964;2023-07-28T13:13:30;5.70;;;3.47;;
4839;SDS011;2434;48.486;7.964;2023-07-28T13:15:59;6.00;;;4.13;;
4839;SDS011;2434;48.486;7.964;2023-07-28T13:18:27;6.53;;;4.07;;
4839;SDS011;2434;48.486;7.964;2023-07-28T13:20:57;5.60;;;3.70;;
4839;SDS011;2434;48.486;7.964;2023-07-28T13:23:27;6.60;;;4.27;;
4839;SDS011;2434;48.486;7.964;2023-07-28T13:25:55;5.13;;;4.37;;
4839;SDS011;2434;48.486;7.964;2023-07-28T13:28:23;6.80;;;4.50;;
4839;SDS011;2434;48.486;7.964;2023-07-28T13:30:52;6.70;;;4.63;;
4839;SDS011;2434;48.486;7.964;2023-07-28T13:33:20;5.17;;;3.80;;
4839;SDS011;2434;48.486;7.964;2023-07-28T13:35:49;6.93;;;4.30;;
4839;SDS011;2434;48.486;7.964;2023-07-28T13:38:17;6.67;;;4.33;;
4839;SDS011;2434;48.486;7.964;2023-07-28T13:40:47;5.47;;;3.77;;
4839;SDS011;2434;48.486;7.964;2023-07-28T13:43:15;5.77;;;3.90;;
4839;SDS011;2434;48.486;7.964;2023-07-28T13:45:43;8.10;;;4.23;;
4839;SDS011;2434;48.486;7.964;2023-07-28T13:48:12;7.90;;;4.43;;
4839;SDS011;2434;48.486;7.964;2023-07-28T13:50:43;7.23;;;4.70;;
4839;SDS011;2434;48.486;7.964;2023-07-28T13:53:21;6.70;;;3.90;;
4839;SDS011;2434;48.486;7.964;2023-07-28T13:55:54;5.40;;;3.97;;
4839;SDS011;2434;48.486;7.964;2023-07-28T13:58:23;7.00;;;4.57;;
4839;SDS011;2434;48.486;7.964;2023-07-28T14:00:52;7.20;;;3.93;;
4839;SDS011;2434;48.486;7.964;2023-07-28T14:03:20;8.73;;;4.00;;
4839;SDS011;2434;48.486;7.964;2023-07-28T14:05:49;5.37;;;4.00;;
4839;SDS011;2434;48.486;7.964;2023-07-28T14:08:17;5.90;;;4.23;;
4839;SDS011;2434;48.486;7.964;2023-07-28T14:10:45;5.97;;;3.57;;
4839;SDS011;2434;48.486;7.964;2023-07-28T14:13:15;10.93;;;4.17;;
4839;SDS011;2434;48.486;7.964;2023-07-28T14:15:43;7.10;;;4.33;;
4839;SDS011;2434;48.486;7.964;2023-07-28T14:18:11;6.67;;;4.43;;
4839;SDS011;2434;48.486;7.964;2023-07-28T14:20:39;6.00;;;4.03;;
4839;SDS011;2434;48.486;7.964;2023-07-28T14:23:20;7.37;;;4.53;;
4839;SDS011;2434;48.486;7.964;2023-07-28T14:25:49;6.53;;;5.03;;
4839;SDS011;2434;48.486;7.964;2023-07-28T14:28:19;7.07;;;4.60;;
4839;SDS011;2434;48.486;7.964;2023-07-28T14:30:50;8.00;;;4.40;;
4839;SDS011;2434;48.486;7.964;2023-07-28T14:33:18;5.40;;;4.03;;
4839;SDS011;2434;48.486;7.964;2023-07-28T14:35:47;6.23;;;4.10;;
4839;SDS011;2434;48.486;7.964;2023-07-28T14:38:16;6.37;;;4.60;;
4839;SDS011;2434;48.486;7.964;2023-07-28T14:40:45;6.27;;;4.50;;
4839;SDS011;2434;48.486;7.964;2023-07-28T14:43:16;11.77;;;4.67;;
4839;SDS011;2434;48.486;7.964;2023-07-28T14:45:45;6.30;;;4.87;;
4839;SDS011;2434;48.486;7.964;2023-07-28T14:48:16;9.10;;;4.80;;
4839;SDS011;2434;48.486;7.964;2023-07-28T14:50:44;7.00;;;4.13;;
4839;SDS011;2434;48.486;7.964;2023-07-28T14:53:32;6.73;;;4.37;;
4839;SDS011;2434;48.486;7.964;2023-07-28T14:56:02;6.60;;;4.50;;
4839;SDS011;2434;48.486;7.964;2023-07-28T14:58:31;7.03;;;5.00;;
4839;SDS011;2434;48.486;7.964;2023-07-28T15:01:01;6.33;;;4.60;;
4839;SDS011;2434;48.486;7.964;2023-07-28T15:03:31;9.83;;;5.27;;
4839;SDS011;2434;48.486;7.964;2023-07-28T15:06:00;8.17;;;4.53;;
4839;SDS011;2434;48.486;7.964;2023-07-28T15:08:29;11.33;;;4.43;;
4839;SDS011;2434;48.486;7.964;2023-07-28T15:10:57;6.30;;;4.60;;
4839;SDS011;2434;48.486;7.964;2023-07-28T15:13:26;7.40;;;4.63;;
4839;SDS011;2434;48.486;7.964;2023-07-28T15:15:54;6.67;;;4.77;;
4839;SDS011;2434;48.486;7.964;2023-07-28T15:18:24;7.23;;;3.83;;
4839;SDS011;2434;48.486;7.964;2023-07-28T15:20:52;7.77;;;3.90;;
4839;SDS011;2434;48.486;7.964;2023-07-28T15:23:22;7.60;;;2.90;;
4839;SDS011;2434;48.486;7.964;2023-07-28T15:25:51;4.67;;;3.00;;
4839;SDS011;2434;48.486;7.964;2023-07-28T15:28:23;3.80;;;2.60;;
4839;SDS011;2434;48.486;7.964;2023-07-28T15:30:52;6.87;;;3.27;;
4839;SDS011;2434;48.486;7.964;2023-07-28T15:33:22;5.10;;;3.30;;
4839;SDS011;2434;48.486;7.964;2023-07-28T15:35:53;4.63;;;3.03;;